Time;durP1;ratioP1;P1;durP2;ratioP2;P2;SDS_P1;SDS_P2;PMS_P1;PMS_P2;Temp;Humidity;BMP_temperature;BMP_pressure;BME280_temperature;BME280_humidity;BME280_pressure;Samples;Min_cycle;Max_cycle;Signal;HPM_P1;HPM_P2
2021/12/28 00:00:01;;;;;;;5.32;4.82;;;;;;;13.24;54.19;94129.41;5028786;28;20026;-64
2021/12/28 00:02:26;;;;;;;6.25;5.65;;;;;;;13.36;54.27;94140.03;5029271;28;20057;-63
2021/12/28 00:04:52;;;;;;;4.65;4.25;;;;;;;13.34;54.08;94125.44;5029399;28;20075;-63
2021/12/28 00:07:17;;;;;;;5.47;4.20;;;;;;;13.26;54.00;94124.53;5029248;28;20049;-63
2021/12/28 00:09:43;;;;;;;4.78;4.38;;;;;;;13.39;53.99;94146.56;5028224;28;20083;-65
2021/12/28 00:12:09;;;;;;;4.97;3.90;;;;;;;13.37;53.79;94128.22;5027976;28;20021;-63
2021/12/28 00:14:38;;;;;;;5.65;5.05;;;;;;;13.34;53.49;94128.91;5027734;28;20040;-63
2021/12/28 00:19:48;;;;;;;5.30;4.25;;;;;;;13.49;53.51;94138.78;5028991;28;20044;-66
2021/12/28 00:22:14;;;;;;;5.07;4.57;;;;;;;13.48;53.68;94126.56;5029515;28;20113;-65
2021/12/28 00:24:40;;;;;;;4.70;4.30;;;;;;;13.34;53.58;94125.44;5028715;28;20034;-64
2021/12/28 00:27:05;;;;;;;3.92;3.55;;;;;;;13.37;53.36;94122.09;5029177;28;20098;-65
2021/12/28 00:29:31;;;;;;;4.15;3.58;;;;;;;13.34;53.51;94106.75;5027337;28;20026;-63
2021/12/28 00:31:57;;;;;;;4.38;3.97;;;;;;;13.45;53.60;94115.78;5028121;28;20032;-65
2021/12/28 00:34:22;;;;;;;4.32;3.95;;;;;;;13.37;53.51;94106.84;5029125;28;20478;-64
2021/12/28 00:36:48;;;;;;;4.00;3.60;;;;;;;13.62;52.81;94125.34;5028037;28;20029;-64
2021/12/28 00:39:13;;;;;;;4.55;3.90;;;;;;;13.54;53.24;94129.75;5028346;28;20053;-64
2021/12/28 00:41:39;;;;;;;6.57;4.32;;;;;;;13.48;53.21;94123.91;5027676;28;20021;-65
2021/12/28 00:44:04;;;;;;;4.43;4.03;;;;;;;13.44;52.90;94122.25;5027837;28;20710;-62
2021/12/28 00:46:29;;;;;;;5.03;4.53;;;;;;;13.48;52.94;94123.91;5029212;28;20029;-64
2021/12/28 00:48:55;;;;;;;4.43;4.03;;;;;;;13.53;53.00;94128.19;5028574;28;20116;-64
2021/12/28 00:51:20;;;;;;;4.18;3.78;;;;;;;13.52;52.90;94132.78;5028924;28;20055;-65
2021/12/28 00:53:46;;;;;;;4.15;3.00;;;;;;;13.40;52.70;94129.41;5028660;28;20502;-65
2021/12/28 00:56:11;;;;;;;4.45;4.07;;;;;;;13.51;53.01;94139.25;5028903;28;20022;-63
2021/12/28 00:58:37;;;;;;;4.40;4.00;;;;;;;13.44;52.78;94130.28;5029960;28;20430;-63
2021/12/28 01:01:03;;;;;;;4.53;4.13;;;;;;;13.30;52.96;94111.22;5032242;28;20109;-63
2021/12/28 01:03:29;;;;;;;4.68;3.92;;;;;;;13.42;52.70;94135.19;5031613;28;20021;-63
2021/12/28 01:05:55;;;;;;;4.28;3.70;;;;;;;13.31;52.61;94123.47;5032523;28;20017;-63
2021/12/28 01:08:20;;;;;;;5.18;4.68;;;;;;;13.22;52.46;94135.09;5032368;28;20427;-63
2021/12/28 01:10:51;;;;;;;4.32;3.92;;;;;;;13.13;52.85;94139.03;5024277;28;20037;-63
2021/12/28 01:13:18;;;;;;;5.82;5.15;;;;;;;13.02;52.86;94155.56;5031049;28;20029;-64
2021/12/28 01:15:44;;;;;;;5.70;4.20;;;;;;;12.88;52.91;94151.75;5032291;28;20033;-64
2021/12/28 01:18:10;;;;;;;4.75;4.25;;;;;;;12.72;53.05;94154.38;5030697;28;20471;-64
2021/12/28 01:20:35;;;;;;;4.93;4.10;;;;;;;12.49;53.33;94140.81;5031884;28;20108;-63
2021/12/28 01:23:03;;;;;;;6.22;4.47;;;;;;;12.44;53.27;94157.06;5032044;28;20021;-64
2021/12/28 01:25:28;;;;;;;4.18;3.70;;;;;;;11.96;53.95;94100.88;5024550;28;20083;-63
2021/12/28 01:27:54;;;;;;;4.28;3.72;;;;;;;12.09;54.09;94136.28;5031776;28;20029;-64
2021/12/28 01:30:21;;;;;;;4.55;3.70;;;;;;;12.00;54.12;94137.53;5031235;28;20105;-63
2021/12/28 01:32:48;;;;;;;3.53;3.22;;;;;;;11.95;53.76;94139.31;5031857;28;20032;-63
2021/12/28 01:35:15;;;;;;;7.45;3.85;;;;;;;11.81;54.51;94136.19;5031884;28;20100;-63
2021/12/28 01:37:41;;;;;;;4.78;4.22;;;;;;;11.70;54.38;94129.78;5031823;28;20112;-63
2021/12/28 01:40:10;;;;;;;5.55;3.90;;;;;;;11.69;54.58;94144.97;5029298;28;20383;-63
2021/12/28 01:42:59;;;;;;;6.05;3.65;;;;;;;11.59;54.65;94147.31;5031395;28;20104;-63
2021/12/28 01:45:37;;;;;;;5.90;3.55;;;;;;;11.48;54.86;94136.34;5026558;28;20545;-63
2021/12/28 01:48:04;;;;;;;6.93;3.47;;;;;;;11.37;55.09;94130.69;5031452;28;20713;-63
2021/12/28 01:50:29;;;;;;;6.75;3.95;;;;;;;11.34;55.58;94136.66;5031045;28;20048;-64
2021/12/28 01:52:55;;;;;;;5.13;3.20;;;;;;;11.25;55.62;94128.00;5031432;28;20430;-63
2021/12/28 01:55:21;;;;;;;7.10;3.40;;;;;;;11.18;55.34;94122.47;5031059;28;20091;-63
2021/12/28 01:57:46;;;;;;;9.05;4.10;;;;;;;11.03;55.65;94123.13;5029880;28;20037;-63
2021/12/28 02:00:12;;;;;;;4.65;4.18;;;;;;;11.06;55.59;94115.25;5030651;28;20025;-63
2021/12/28 02:02:38;;;;;;;6.25;4.30;;;;;;;10.96;55.66;94120.22;5031695;28;20486;-63
2021/12/28 02:05:03;;;;;;;4.85;3.65;;;;;;;10.94;55.48;94112.56;5031410;28;20018;-63
2021/12/28 02:07:29;;;;;;;5.28;3.97;;;;;;;10.85;55.50;94115.34;5031243;28;20390;-63
2021/12/28 02:09:55;;;;;;;4.90;4.40;;;;;;;10.78;55.64;94101.00;5028143;28;20064;-63
2021/12/28 02:12:21;;;;;;;6.95;4.15;;;;;;;10.79;55.98;94102.56;5031105;28;20033;-63
2021/12/28 02:14:47;;;;;;;8.32;3.83;;;;;;;10.73;55.50;94086.03;5029745;28;20030;-63
2021/12/28 02:17:14;;;;;;;5.72;3.88;;;;;;;10.64;55.63;94093.31;5031128;28;20026;-63
2021/12/28 02:19:40;;;;;;;9.13;4.90;;;;;;;10.65;55.31;94108.97;5028974;28;20506;-63
2021/12/28 02:22:07;;;;;;;8.38;4.43;;;;;;;10.60;55.46;94098.56;5029679;28;20032;-63
2021/12/28 02:24:33;;;;;;;8.65;4.07;;;;;;;10.39;56.15;94069.34;5030847;28;20554;-63
2021/12/28 02:26:59;;;;;;;9.07;4.78;;;;;;;10.32;55.80;94068.31;5029269;28;20053;-63
2021/12/28 02:29:25;;;;;;;6.18;3.85;;;;;;;10.32;55.69;94079.72;5030033;28;20075;-63
2021/12/28 02:31:55;;;;;;;5.85;4.25;;;;;;;10.39;55.97;94087.97;5029894;28;20140;-64
2021/12/28 02:34:25;;;;;;;9.80;3.90;;;;;;;10.31;55.69;94085.38;5030762;28;20071;-63
2021/12/28 02:36:50;;;;;;;11.57;5.00;;;;;;;10.36;56.28;94087.84;5030881;28;20080;-63
2021/12/28 02:39:16;;;;;;;10.60;4.75;;;;;;;10.28;56.44;94070.84;5029840;28;20489;-63
2021/12/28 02:41:42;;;;;;;11.77;4.70;;;;;;;10.33;55.94;94077.84;5030123;28;20030;-63
2021/12/28 02:44:07;;;;;;;5.38;3.97;;;;;;;10.25;56.02;94068.88;5030320;28;20034;-63
2021/12/28 02:46:34;;;;;;;10.65;4.40;;;;;;;10.26;56.57;94072.31;5030651;28;20152;-63
2021/12/28 02:48:59;;;;;;;11.38;3.97;;;;;;;10.28;56.14;94072.75;5029712;28;20510;-63
2021/12/28 02:51:25;;;;;;;8.38;4.43;;;;;;;10.19;56.29;94067.50;5030378;28;20049;-63
2021/12/28 02:53:50;;;;;;;6.97;5.13;;;;;;;10.10;55.97;94056.16;5030447;28;20028;-63
2021/12/28 02:56:18;;;;;;;10.48;5.43;;;;;;;10.09;56.07;94059.94;5028468;28;20116;-63
2021/12/28 02:58:50;;;;;;;9.98;4.40;;;;;;;10.09;56.17;94051.97;5029815;28;20026;-63
2021/12/28 03:01:25;;;;;;;7.05;4.53;;;;;;;10.11;56.38;94055.06;5029816;28;20025;-63
2021/12/28 03:03:58;;;;;;;7.63;4.30;;;;;;;10.07;56.65;94051.50;5030217;28;20034;-64
2021/12/28 03:06:24;;;;;;;12.15;4.30;;;;;;;10.03;55.78;94050.59;5030395;28;20034;-63
2021/12/28 03:08:53;;;;;;;18.02;4.75;;;;;;;10.05;56.25;94043.09;5030038;28;20044;-63
2021/12/28 03:11:19;;;;;;;7.40;4.93;;;;;;;9.94;55.68;94029.44;5029314;28;20075;-63
2021/12/28 03:13:48;;;;;;;9.27;4.72;;;;;;;9.97;56.19;94033.28;5028388;28;20493;-64
2021/12/28 03:16:15;;;;;;;10.77;4.65;;;;;;;10.02;55.96;94039.19;5030118;28;20116;-63
2021/12/28 03:18:41;;;;;;;13.80;4.93;;;;;;;9.93;56.21;94021.75;5029698;28;20018;-62
2021/12/28 03:21:08;;;;;;;9.50;4.88;;;;;;;9.94;56.49;94026.00;5029327;28;20037;-63
2021/12/28 03:23:36;;;;;;;12.75;5.15;;;;;;;9.83;57.00;94015.78;5028071;28;20025;-63
2021/12/28 03:26:02;;;;;;;10.95;5.68;;;;;;;9.84;56.73;94012.00;5029239;28;20029;-63
2021/12/28 03:28:33;;;;;;;10.55;5.53;;;;;;;9.81;56.57;94001.25;5029583;28;20102;-65
2021/12/28 03:31:01;;;;;;;11.27;4.97;;;;;;;9.87;56.06;94007.91;5029721;28;20026;-64
2021/12/28 03:33:29;;;;;;;7.10;3.97;;;;;;;9.90;56.32;94017.91;5028708;28;20033;-64
2021/12/28 03:35:55;;;;;;;6.80;5.00;;;;;;;9.82;57.00;94000.91;5029373;28;20108;-64
2021/12/28 03:38:21;;;;;;;8.43;4.15;;;;;;;9.81;56.68;93996.72;5027438;28;20120;-64
2021/12/28 03:40:47;;;;;;;10.05;4.90;;;;;;;9.88;56.60;93999.63;5027182;28;20682;-65
2021/12/28 03:43:13;;;;;;;7.40;4.47;;;;;;;9.87;56.59;94007.91;5029317;28;20032;-64
2021/12/28 03:45:38;;;;;;;5.65;4.68;;;;;;;9.79;56.63;93993.63;5029810;28;20562;-64
2021/12/28 03:48:05;;;;;;;7.15;4.82;;;;;;;9.86;56.15;94012.44;5029180;28;20036;-64
2021/12/28 03:50:32;;;;;;;7.55;4.78;;;;;;;9.83;56.26;94010.47;5028014;28;20043;-64
2021/12/28 03:52:58;;;;;;;9.80;5.82;;;;;;;9.80;55.98;94005.03;5029565;28;20022;-64
2021/12/28 03:55:24;;;;;;;8.18;5.78;;;;;;;9.78;56.39;94000.03;5029125;28;20025;-66
2021/12/28 03:57:56;;;;;;;5.30;4.45;;;;;;;9.71;55.92;93991.03;5029235;28;20653;-64
2021/12/28 04:00:23;;;;;;;4.78;4.25;;;;;;;9.80;56.34;94011.09;5028787;28;20041;-64
2021/12/28 04:02:49;;;;;;;7.82;5.53;;;;;;;9.73;56.22;93994.94;5029291;28;20034;-65
2021/12/28 04:05:16;;;;;;;8.63;4.88;;;;;;;9.77;56.13;94003.78;5029580;28;20037;-64
2021/12/28 04:07:42;;;;;;;8.73;4.32;;;;;;;9.75;56.18;93999.91;5029376;28;20108;-64
2021/12/28 04:10:10;;;;;;;7.07;4.38;;;;;;;9.63;56.00;93976.75;5025837;28;20378;-64
2021/12/28 04:12:36;;;;;;;7.10;3.95;;;;;;;9.66;56.07;93975.31;5028985;28;20021;-65
2021/12/28 04:15:02;;;;;;;7.00;3.58;;;;;;;9.57;55.79;93952.28;5028148;28;20044;-64
2021/12/28 04:17:28;;;;;;;5.57;3.42;;;;;;;9.62;55.93;93959.25;5029626;28;20477;-64
2021/12/28 04:19:54;;;;;;;3.22;2.65;;;;;;;9.72;56.38;93971.34;5029057;28;20053;-64
2021/12/28 04:22:20;;;;;;;5.78;3.10;;;;;;;9.79;56.04;93982.22;5029693;28;20060;-64
2021/12/28 04:24:46;;;;;;;4.47;2.47;;;;;;;9.82;55.90;93976.25;5028806;28;20029;-64
2021/12/28 04:27:11;;;;;;;3.25;2.10;;;;;;;9.83;55.69;93961.88;5027728;28;20091;-64
2021/12/28 04:29:37;;;;;;;6.30;2.65;;;;;;;9.84;55.86;93958.91;5027351;28;20021;-64
2021/12/28 04:32:03;;;;;;;3.85;2.80;;;;;;;9.83;55.53;93951.25;5029394;28;20026;-64
2021/12/28 04:34:29;;;;;;;5.82;2.70;;;;;;;9.80;55.24;93936.75;5030436;28;20378;-64
2021/12/28 04:36:54;;;;;;;3.20;2.50;;;;;;;9.80;55.42;93938.63;5033357;28;20075;-64
2021/12/28 04:39:19;;;;;;;4.60;2.42;;;;;;;9.82;55.61;93947.03;5031111;28;20025;-64
2021/12/28 04:41:45;;;;;;;3.38;2.05;;;;;;;9.80;55.65;93941.28;5031100;28;20756;-64
2021/12/28 04:44:13;;;;;;;3.10;1.98;;;;;;;9.84;55.77;93948.28;5032845;28;20390;-64
2021/12/28 04:46:39;;;;;;;4.85;2.25;;;;;;;9.83;55.51;93936.09;5031676;28;20240;-64
2021/12/28 04:49:05;;;;;;;3.78;2.08;;;;;;;9.85;55.52;93936.53;5032091;28;20087;-64
2021/12/28 04:51:31;;;;;;;2.70;2.50;;;;;;;9.88;55.52;93943.84;5032745;28;20025;-64
2021/12/28 04:53:59;;;;;;;2.67;2.10;;;;;;;9.87;55.71;93939.63;5032971;28;20072;-64
2021/12/28 04:56:25;;;;;;;4.72;2.60;;;;;;;9.89;54.95;93939.31;5032351;28;20379;-64
2021/12/28 04:58:50;;;;;;;4.68;2.38;;;;;;;9.81;55.32;93927.66;5032263;28;20026;-65
2021/12/28 05:01:16;;;;;;;3.72;2.13;;;;;;;9.73;55.37;93915.28;5032329;28;20738;-64
2021/12/28 05:03:41;;;;;;;5.43;2.00;;;;;;;9.75;55.08;93910.41;5032629;28;20024;-64
2021/12/28 05:06:07;;;;;;;6.30;2.53;;;;;;;9.85;55.15;93925.91;5032384;28;20510;-64
2021/12/28 05:08:33;;;;;;;3.75;2.15;;;;;;;9.80;55.22;93910.19;5030859;28;20037;-64
2021/12/28 05:10:58;;;;;;;5.50;2.25;;;;;;;9.87;55.26;93921.03;5024502;28;20450;-64
2021/12/28 05:13:24;;;;;;;3.42;2.00;;;;;;;9.67;55.56;93903.28;5031965;28;20037;-64
2021/12/28 05:15:50;;;;;;;5.05;2.10;;;;;;;9.49;55.56;93883.34;5032117;28;20526;-64
2021/12/28 05:18:16;;;;;;;5.80;2.60;;;;;;;9.69;55.43;93910.94;5032049;28;20234;-64
2021/12/28 05:20:43;;;;;;;6.82;2.45;;;;;;;9.76;55.24;93914.59;5031598;28;20026;-64
2021/12/28 05:23:09;;;;;;;4.05;2.33;;;;;;;9.78;55.54;93904.44;5032157;28;20075;-64
2021/12/28 05:25:34;;;;;;;1.90;1.60;;;;;;;9.76;55.68;93911.94;5030234;28;20033;-64
2021/12/28 05:28:01;;;;;;;4.03;1.73;;;;;;;9.68;55.94;93896.88;5030147;28;20033;-64
2021/12/28 05:30:27;;;;;;;3.70;1.60;;;;;;;9.70;55.81;93884.06;5031483;28;20060;-64
2021/12/28 05:32:53;;;;;;;4.35;1.65;;;;;;;9.81;55.51;93897.69;5031844;28;20022;-64
2021/12/28 05:35:18;;;;;;;3.55;1.77;;;;;;;9.81;55.65;93895.03;5031942;28;20471;-64
2021/12/28 05:37:44;;;;;;;3.58;1.80;;;;;;;9.95;55.35;93897.38;5031765;28;20021;-64
2021/12/28 05:40:12;;;;;;;5.07;1.58;;;;;;;9.97;55.21;93892.50;5030923;28;20057;-64
2021/12/28 05:42:37;;;;;;;3.03;1.60;;;;;;;10.03;55.43;93886.69;5031388;28;20441;-64
2021/12/28 05:45:04;;;;;;;3.15;1.30;;;;;;;10.11;55.47;93887.66;5030431;28;20026;-64
2021/12/28 05:47:29;;;;;;;2.22;1.45;;;;;;;10.20;55.61;93898.97;5031440;28;20553;-64
2021/12/28 05:49:55;;;;;;;6.40;1.42;;;;;;;10.12;55.12;93860.75;5029542;28;20038;-64
2021/12/28 05:52:20;;;;;;;4.95;1.60;;;;;;;10.39;54.59;93885.19;5031469;28;20106;-64
2021/12/28 05:54:46;;;;;;;3.92;1.60;;;;;;;10.52;54.35;93891.25;5031149;28;20116;-64
2021/12/28 05:57:11;;;;;;;7.40;1.88;;;;;;;10.55;54.71;93871.97;5031185;28;20021;-64
2021/12/28 05:59:37;;;;;;;4.28;1.60;;;;;;;10.68;54.34;93868.94;5030581;28;20113;-64
2021/12/28 06:02:03;;;;;;;6.32;1.50;;;;;;;10.80;53.95;93867.38;5031513;28;20025;-64
2021/12/28 06:04:28;;;;;;;5.32;1.63;;;;;;;10.95;54.34;93866.69;5030107;28;20018;-64
2021/12/28 06:06:54;;;;;;;8.15;2.10;;;;;;;11.20;53.67;93876.13;5031222;28;20564;-63
2021/12/28 06:09:19;;;;;;;8.50;1.48;;;;;;;11.13;53.67;93848.56;5030605;28;20038;-64
2021/12/28 06:11:44;;;;;;;1.77;1.17;;;;;;;11.37;53.16;93880.41;5030670;28;20025;-63
2021/12/28 06:14:10;;;;;;;3.25;1.38;;;;;;;11.44;53.23;93867.28;5030702;28;20032;-63
2021/12/28 06:16:36;;;;;;;4.40;1.40;;;;;;;11.45;52.47;93865.41;5030962;28;20036;-64
2021/12/28 06:19:05;;;;;;;3.05;1.35;;;;;;;11.36;52.70;93851.44;5030354;28;20017;-64
2021/12/28 06:21:31;;;;;;;4.78;1.52;;;;;;;11.69;51.92;93917.78;5030944;28;20079;-64
2021/12/28 06:23:59;;;;;;;4.15;1.90;;;;;;;11.74;51.93;93914.09;5030808;28;20022;-64
2021/12/28 06:26:26;;;;;;;7.60;2.00;;;;;;;11.80;52.13;93905.50;5030511;28;20026;-64
2021/12/28 06:28:51;;;;;;;3.50;1.55;;;;;;;11.77;52.09;93898.19;5029011;28;20025;-64
2021/12/28 06:31:17;;;;;;;3.92;1.63;;;;;;;11.82;51.79;93908.63;5030770;28;20432;-64
2021/12/28 06:33:42;;;;;;;2.22;1.30;;;;;;;11.80;51.31;93908.19;5030933;28;20029;-64
2021/12/28 06:36:09;;;;;;;5.82;1.90;;;;;;;11.90;51.39;93914.94;5031182;28;20036;-64
2021/12/28 06:38:34;;;;;;;3.90;1.70;;;;;;;11.94;51.23;93918.47;5030760;28;20032;-64
2021/12/28 06:40:59;;;;;;;3.83;1.42;;;;;;;11.99;51.60;93904.13;5029774;28;20025;-64
2021/12/28 06:43:25;;;;;;;4.63;1.80;;;;;;;12.04;51.40;93907.31;5028910;28;20091;-64
2021/12/28 06:45:51;;;;;;;2.83;1.50;;;;;;;12.18;51.11;93930.88;5030301;28;20033;-64
2021/12/28 06:48:17;;;;;;;4.40;2.88;;;;;;;12.17;50.77;93911.44;5030169;28;20037;-64
2021/12/28 06:50:42;;;;;;;3.65;2.35;;;;;;;12.11;50.80;93896.81;5030116;28;20021;-64
2021/12/28 06:53:07;;;;;;;3.70;1.83;;;;;;;12.10;50.50;93899.84;5029130;28;20482;-64
2021/12/28 06:55:33;;;;;;;6.93;1.88;;;;;;;12.18;50.70;93906.88;5029921;28;20056;-64
2021/12/28 06:57:58;;;;;;;4.30;1.70;;;;;;;12.15;50.67;93896.91;5029953;28;20382;-63
2021/12/28 07:00:24;;;;;;;4.35;1.90;;;;;;;12.19;50.53;93887.88;5028398;28;20057;-64
2021/12/28 07:02:49;;;;;;;4.55;1.65;;;;;;;12.15;50.46;93880.91;5030323;28;20368;-64
2021/12/28 07:05:15;;;;;;;3.42;1.60;;;;;;;12.17;50.25;93878.66;5028909;28;20041;-63
2021/12/28 07:07:40;;;;;;;4.97;1.85;;;;;;;12.28;50.87;93890.34;5030188;28;20383;-64
2021/12/28 07:10:08;;;;;;;4.60;2.60;;;;;;;12.44;50.11;93899.16;5029036;28;20390;-64
2021/12/28 07:12:34;;;;;;;6.07;1.92;;;;;;;12.46;50.21;93872.13;5025468;28;20133;-64
2021/12/28 07:15:00;;;;;;;5.32;1.90;;;;;;;12.56;50.26;93887.59;5029813;28;20017;-64
2021/12/28 07:17:26;;;;;;;5.63;1.60;;;;;;;12.52;49.72;93896.63;5029856;28;20108;-64
2021/12/28 07:19:55;;;;;;;5.05;2.08;;;;;;;12.49;50.08;93893.56;5029168;28;20029;-64
2021/12/28 07:22:21;;;;;;;3.15;1.65;;;;;;;12.49;49.99;93885.56;5028555;28;20025;-64
2021/12/28 07:24:46;;;;;;;3.92;2.00;;;;;;;12.63;50.09;93895.75;5029878;28;20044;-65
2021/12/28 07:27:12;;;;;;;2.40;1.27;;;;;;;12.51;50.01;93881.75;5029118;28;20044;-63
2021/12/28 07:29:37;;;;;;;6.45;1.65;;;;;;;12.64;49.66;93888.53;5028898;28;20017;-64
2021/12/28 07:32:06;;;;;;;3.70;1.60;;;;;;;12.64;49.88;93888.53;5029553;28;20030;-62
2021/12/28 07:34:32;;;;;;;3.88;1.38;;;;;;;12.70;49.77;93887.94;5029747;28;20029;-62
2021/12/28 07:36:58;;;;;;;7.43;2.05;;;;;;;11.64;50.69;93875.41;5029766;28;20557;-62
2021/12/28 07:39:23;;;;;;;2.05;1.30;;;;;;;11.72;50.91;93895.81;5027874;28;20021;-65
2021/12/28 07:41:48;;;;;;;5.25;2.00;;;;;;;12.10;50.85;93889.94;5028739;28;20104;-65
2021/12/28 07:44:14;;;;;;;2.92;1.60;;;;;;;12.35;50.64;93917.22;5029674;28;20475;-64
2021/12/28 07:46:39;;;;;;;3.72;1.55;;;;;;;12.37;50.40;93919.53;5029413;28;20365;-66
2021/12/28 07:49:05;;;;;;;3.40;1.83;;;;;;;12.53;50.00;93911.50;5027634;28;20037;-64
2021/12/28 07:51:32;;;;;;;3.72;1.55;;;;;;;12.61;50.01;93918.56;5029835;28;20091;-64
2021/12/28 07:53:57;;;;;;;2.88;1.38;;;;;;;12.46;48.99;93928.13;5028468;28;20386;-63
2021/12/28 07:56:22;;;;;;;3.47;1.63;;;;;;;12.60;49.61;93917.81;5029422;28;20044;-65
2021/12/28 07:58:48;;;;;;;3.83;1.45;;;;;;;12.71;49.54;93928.72;5029061;28;20029;-63
2021/12/28 08:01:14;;;;;;;5.93;1.85;;;;;;;12.75;49.86;93927.69;5028072;28;20028;-63
2021/12/28 08:03:39;;;;;;;5.47;1.75;;;;;;;12.76;49.32;93939.13;5029559;28;20439;-64
2021/12/28 08:06:04;;;;;;;4.00;1.55;;;;;;;11.97;50.56;93936.44;5029496;28;20591;-65
2021/12/28 08:08:30;;;;;;;2.83;1.40;;;;;;;12.15;50.72;93935.00;5030442;28;20026;-64
2021/12/28 08:10:55;;;;;;;6.53;1.48;;;;;;;12.48;50.35;93953.31;5031825;28;20057;-62
2021/12/28 08:13:22;;;;;;;3.88;1.15;;;;;;;12.69;50.18;93962.97;5033143;28;20018;-62
2021/12/28 08:15:48;;;;;;;3.15;1.20;;;;;;;12.71;50.01;93958.84;5033452;28;20686;-64
2021/12/28 08:18:13;;;;;;;7.40;1.10;;;;;;;12.38;49.93;93947.72;5032934;28;20112;-64
2021/12/28 08:20:39;;;;;;;2.40;1.00;;;;;;;12.78;50.16;93946.78;5032652;28;20554;-65
2021/12/28 08:23:06;;;;;;;5.82;1.10;;;;;;;13.01;49.96;93956.47;5032062;28;20036;-65
2021/12/28 08:25:31;;;;;;;3.72;1.40;;;;;;;12.96;49.19;93932.72;5033141;28;20454;-65
2021/12/28 08:27:58;;;;;;;4.65;1.33;;;;;;;12.98;48.87;93943.03;5032960;28;20049;-63
2021/12/28 08:30:23;;;;;;;3.60;1.58;;;;;;;13.07;49.13;93948.97;5032539;28;20022;-63
2021/12/28 08:32:49;;;;;;;2.47;1.10;;;;;;;12.90;48.71;93955.47;5033063;28;20051;-64
2021/12/28 08:35:15;;;;;;;3.22;1.27;;;;;;;12.91;49.24;93964.25;5033231;28;20049;-63
2021/12/28 08:37:42;;;;;;;2.75;0.95;;;;;;;13.24;48.88;93972.63;5033153;28;20028;-63
2021/12/28 08:40:10;;;;;;;2.67;1.05;;;;;;;13.37;48.89;93978.66;5032380;28;20386;-63
2021/12/28 08:42:35;;;;;;;2.50;1.10;;;;;;;13.18;48.08;93971.34;5025151;28;20029;-65
2021/12/28 08:45:03;;;;;;;3.03;0.90;;;;;;;13.47;48.36;93970.09;5032547;28;20062;-64
2021/12/28 08:47:28;;;;;;;2.20;1.08;;;;;;;13.56;47.90;93971.75;5031891;28;20025;-65
2021/12/28 08:49:55;;;;;;;1.45;1.00;;;;;;;13.77;47.82;93972.97;5031795;28;20565;-65
2021/12/28 08:52:21;;;;;;;3.47;1.30;;;;;;;13.37;47.12;93959.19;5032780;28;20074;-65
2021/12/28 08:54:47;;;;;;;2.53;1.10;;;;;;;13.22;47.90;93972.22;5031712;28;20037;-63
2021/12/28 08:57:12;;;;;;;3.25;1.30;;;;;;;11.60;51.60;93968.53;5031276;28;20132;-63
2021/12/28 08:59:39;;;;;;;9.07;1.48;;;;;;;12.45;51.03;93977.25;5031749;28;20463;-66
2021/12/28 09:02:06;;;;;;;11.57;1.85;;;;;;;13.01;50.33;93995.75;5032645;28;20026;-65
2021/12/28 09:04:31;;;;;;;7.93;2.05;;;;;;;13.14;50.63;93983.81;5032361;28;20199;-63
2021/12/28 09:06:57;;;;;;;5.07;1.83;;;;;;;13.30;50.84;93991.06;5032467;28;20108;-63
2021/12/28 09:09:22;;;;;;;9.77;1.70;;;;;;;13.20;50.53;94003.03;5030662;28;20029;-64
2021/12/28 09:11:48;;;;;;;4.68;1.55;;;;;;;13.02;51.69;93989.28;5032216;28;20364;-63
2021/12/28 09:14:13;;;;;;;2.30;1.23;;;;;;;10.91;56.85;94012.91;5030594;28;20025;-63
2021/12/28 09:16:39;;;;;;;9.30;2.55;;;;;;;11.82;55.09;94007.22;5032035;28;20027;-61
2021/12/28 09:19:04;;;;;;;7.15;2.78;;;;;;;11.12;56.53;94023.44;5031570;28;20029;-61
2021/12/28 09:21:30;;;;;;;7.97;2.97;;;;;;;11.47;55.65;94025.63;5032173;28;20104;-61
2021/12/28 09:23:55;;;;;;;8.18;2.78;;;;;;;11.67;55.89;94015.91;5030950;28;20115;-62
2021/12/28 09:26:20;;;;;;;7.35;2.50;;;;;;;12.14;54.57;94025.97;5030416;28;20029;-60
2021/12/28 09:28:46;;;;;;;5.90;2.33;;;;;;;12.11;54.96;94019.44;5030165;28;20026;-62
2021/12/28 09:31:11;;;;;;;3.35;1.73;;;;;;;12.66;55.06;94028.47;5031282;28;20014;-62
2021/12/28 09:33:37;;;;;;;4.13;2.28;;;;;;;12.90;55.16;94026.75;5031812;28;20452;-62
2021/12/28 09:36:06;;;;;;;2.13;1.52;;;;;;;12.99;54.11;94013.97;5031834;28;20018;-60
2021/12/28 09:38:32;;;;;;;3.35;2.10;;;;;;;13.02;53.14;94002.63;5031326;28;20025;-64
2021/12/28 09:40:57;;;;;;;3.58;1.83;;;;;;;13.34;53.18;94006.03;5029845;28;20034;-65
2021/12/28 09:43:22;;;;;;;2.78;1.52;;;;;;;13.58;52.71;93997.00;5030162;28;20386;-65
2021/12/28 09:45:48;;;;;;;2.58;1.70;;;;;;;13.64;52.54;93994.84;5031425;28;20032;-66
2021/12/28 09:48:14;;;;;;;2.58;1.63;;;;;;;13.74;52.00;93979.03;5031090;28;20029;-66
2021/12/28 09:50:41;;;;;;;4.25;1.30;;;;;;;13.75;51.62;93985.13;5031121;28;20077;-66
2021/12/28 09:53:09;;;;;;;4.07;1.92;;;;;;;13.71;51.71;93994.97;5029811;28;20120;-65
2021/12/28 09:55:35;;;;;;;4.85;1.73;;;;;;;13.47;51.59;93942.59;5031647;28;20021;-65
2021/12/28 09:58:00;;;;;;;2.10;1.50;;;;;;;13.88;51.98;93988.47;5030632;28;20095;-66
2021/12/28 10:00:27;;;;;;;4.05;2.10;;;;;;;14.14;51.91;93995.81;5030816;28;20029;-65
2021/12/28 10:02:53;;;;;;;3.83;1.60;;;;;;;14.20;51.34;93995.16;5029527;28;20025;-66
2021/12/28 10:05:23;;;;;;;5.68;1.80;;;;;;;14.29;50.77;93993.06;5031292;28;20021;-65
2021/12/28 10:07:57;;;;;;;2.88;1.50;;;;;;;14.49;50.24;93998.41;5029681;28;20099;-66
2021/12/28 10:10:29;;;;;;;2.33;1.60;;;;;;;14.47;50.11;93989.91;5030613;28;20095;-65
2021/12/28 10:13:00;;;;;;;3.35;1.42;;;;;;;14.56;50.22;93995.84;5030246;28;20030;-66
2021/12/28 10:15:33;;;;;;;3.60;1.60;;;;;;;14.49;50.32;93999.16;5030692;28;20104;-65
2021/12/28 10:18:03;;;;;;;4.50;1.58;;;;;;;14.57;50.35;93992.03;5031086;28;20057;-64
2021/12/28 10:20:33;;;;;;;5.20;1.70;;;;;;;14.56;50.12;93977.09;5030477;28;20060;-66
2021/12/28 10:23:02;;;;;;;4.25;1.92;;;;;;;14.61;50.00;93979.47;5030926;28;20013;-66
2021/12/28 10:25:36;;;;;;;4.45;1.50;;;;;;;14.39;49.97;93972.97;5030990;28;20029;-65
2021/12/28 10:28:04;;;;;;;6.65;1.60;;;;;;;14.27;50.75;93955.16;5030079;28;20026;-65
2021/12/28 10:30:36;;;;;;;6.10;2.55;;;;;;;14.22;51.51;93971.50;5030247;28;20026;-66
2021/12/28 10:33:07;;;;;;;4.72;2.00;;;;;;;14.12;52.63;93947.25;5030543;28;20036;-66
2021/12/28 10:35:45;;;;;;;8.48;2.03;;;;;;;14.19;52.06;93966.13;5030741;28;20028;-66
2021/12/28 10:38:16;;;;;;;4.57;1.58;;;;;;;14.32;52.57;93954.88;5030826;28;20412;-66
2021/12/28 10:40:45;;;;;;;4.78;1.52;;;;;;;14.23;52.32;93938.31;5030317;28;20029;-66
2021/12/28 10:43:21;;;;;;;4.53;1.67;;;;;;;14.45;51.64;93944.78;5028643;28;20029;-66
2021/12/28 10:45:54;;;;;;;1.90;1.40;;;;;;;14.44;51.68;93943.25;5030632;28;20554;-68
2021/12/28 10:48:26;;;;;;;4.53;1.27;;;;;;;14.43;51.51;93939.00;5030121;28;20037;-66
2021/12/28 10:51:01;;;;;;;3.50;1.77;;;;;;;14.40;52.44;93933.63;5030383;28;20537;-67
2021/12/28 10:53:38;;;;;;;2.72;1.20;;;;;;;14.54;52.63;93936.56;5029383;28;20394;-64
2021/12/28 10:56:09;;;;;;;2.15;1.00;;;;;;;14.36;51.57;93936.22;5030462;28;20063;-66
2021/12/28 10:58:44;;;;;;;1.80;1.23;;;;;;;14.43;50.98;93938.25;5027029;28;20510;-65
2021/12/28 11:01:10;;;;;;;2.05;1.40;;;;;;;14.65;51.03;93942.84;5029561;28;20345;-63
2021/12/28 11:03:37;;;;;;;3.42;1.30;;;;;;;14.54;51.03;93923.19;5030355;28;20417;-63
2021/12/28 11:06:20;;;;;;;1.92;1.10;;;;;;;14.82;50.88;93914.81;5030619;28;20087;-63
2021/12/28 11:08:48;;;;;;;1.33;1.20;;;;;;;15.00;50.24;93923.88;5030345;28;20087;-66
2021/12/28 11:11:16;;;;;;;1.65;1.50;;;;;;;14.96;49.67;93908.91;5028206;28;20061;-61
2021/12/28 11:13:42;;;;;;;1.77;1.08;;;;;;;15.00;49.03;93915.84;5027724;28;20029;-62
2021/12/28 11:16:10;;;;;;;2.33;1.40;;;;;;;14.99;49.01;93908.16;5030251;28;20056;-63
2021/12/28 11:18:39;;;;;;;2.03;1.45;;;;;;;15.02;48.82;93910.13;5030001;28;20025;-65
2021/12/28 11:21:16;;;;;;;2.65;1.30;;;;;;;15.15;48.50;93902.63;5029651;28;20033;-64
2021/12/28 11:23:42;;;;;;;2.67;1.38;;;;;;;15.19;48.38;93903.44;5028729;28;20022;-65
2021/12/28 11:26:35;;;;;;;1.77;1.02;;;;;;;15.08;47.67;93897.97;5028711;28;20040;-65
2021/12/28 11:29:06;;;;;;;2.08;1.13;;;;;;;15.25;48.53;93902.00;5028718;28;20025;-65
2021/12/28 11:31:50;;;;;;;3.03;1.63;;;;;;;15.34;48.69;93889.09;5029741;28;20029;-65
2021/12/28 11:34:24;;;;;;;1.80;1.40;;;;;;;15.43;48.47;93873.53;5028895;28;20022;-65